sensor_id;sensor_type;location;lat;lon;timestamp;temperature;humidity
9810;DHT22;4944;52.514;13.192;2024-01-30T00:01:06;5.10;99.90
9810;DHT22;4944;52.514;13.192;2024-01-30T00:03:33;5.10;99.90
9810;DHT22;4944;52.514;13.192;2024-01-30T00:06:03;5.00;99.90
9810;DHT22;4944;52.514;13.192;2024-01-30T00:08:30;5.00;99.90
9810;DHT22;4944;52.514;13.192;2024-01-30T00:10:56;4.90;99.90
9810;DHT22;4944;52.514;13.192;2024-01-30T00:13:23;4.90;99.90
9810;DHT22;4944;52.514;13.192;2024-01-30T00:15:50;5.00;99.90
9810;DHT22;4944;52.514;13.192;2024-01-30T00:18:17;5.00;99.90
9810;DHT22;4944;52.514;13.192;2024-01-30T00:20:45;5.00;99.90
9810;DHT22;4944;52.514;13.192;2024-01-30T00:23:13;4.90;99.90
9810;DHT22;4944;52.514;13.192;2024-01-30T00:25:40;4.90;99.90
9810;DHT22;4944;52.514;13.192;2024-01-30T00:28:07;5.00;99.90
9810;DHT22;4944;52.514;13.192;2024-01-30T00:30:34;4.90;99.90
9810;DHT22;4944;52.514;13.192;2024-01-30T00:33:00;4.90;99.90
9810;DHT22;4944;52.514;13.192;2024-01-30T00:35:27;4.90;99.90
9810;DHT22;4944;52.514;13.192;2024-01-30T00:37:55;4.90;99.90
9810;DHT22;4944;52.514;13.192;2024-01-30T00:40:24;4.90;99.90
9810;DHT22;4944;52.514;13.192;2024-01-30T00:42:51;4.90;99.90
9810;DHT22;4944;52.514;13.192;2024-01-30T00:45:18;4.90;99.90
9810;DHT22;4944;52.514;13.192;2024-01-30T00:47:44;4.90;99.90
9810;DHT22;4944;52.514;13.192;2024-01-30T00:50:11;4.80;99.90
9810;DHT22;4944;52.514;13.192;2024-01-30T00:52:38;4.80;99.90
9810;DHT22;4944;52.514;13.192;2024-01-30T00:55:07;4.80;99.90
9810;DHT22;4944;52.514;13.192;2024-01-30T00:57:35;4.80;99.90
9810;DHT22;4944;52.514;13.192;2024-01-30T01:00:02;4.80;99.90
9810;DHT22;4944;52.514;13.192;2024-01-30T01:02:31;4.80;99.90
9810;DHT22;4944;52.514;13.192;2024-01-30T01:04:58;4.80;99.90
9810;DHT22;4944;52.514;13.192;2024-01-30T01:07:25;4.80;99.90
9810;DHT22;4944;52.514;13.192;2024-01-30T01:09:52;4.80;99.90
9810;DHT22;4944;52.514;13.192;2024-01-30T01:12:19;4.80;99.90
9810;DHT22;4944;52.514;13.192;2024-01-30T01:14:47;4.90;99.90
9810;DHT22;4944;52.514;13.192;2024-01-30T01:17:14;4.80;99.90
9810;DHT22;4944;52.514;13.192;2024-01-30T01:19:41;4.80;99.90
9810;DHT22;4944;52.514;13.192;2024-01-30T01:22:08;4.80;99.90
9810;DHT22;4944;52.514;13.192;2024-01-30T01:24:35;4.80;99.90
9810;DHT22;4944;52.514;13.192;2024-01-30T01:27:03;4.80;99.90
9810;DHT22;4944;52.514;13.192;2024-01-30T01:29:30;4.80;99.90
9810;DHT22;4944;52.514;13.192;2024-01-30T01:31:58;4.70;99.90
9810;DHT22;4944;52.514;13.192;2024-01-30T01:34:25;4.80;99.90
9810;DHT22;4944;52.514;13.192;2024-01-30T01:36:52;4.70;99.90
9810;DHT22;4944;52.514;13.192;2024-01-30T01:39:21;4.70;99.90
9810;DHT22;4944;52.514;13.192;2024-01-30T01:41:48;4.70;99.90
9810;DHT22;4944;52.514;13.192;2024-01-30T01:44:15;4.70;99.90
9810;DHT22;4944;52.514;13.192;2024-01-30T01:46:42;4.70;99.90
9810;DHT22;4944;52.514;13.192;2024-01-30T01:49:11;4.60;99.90
9810;DHT22;4944;52.514;13.192;2024-01-30T01:51:38;4.60;99.90
9810;DHT22;4944;52.514;13.192;2024-01-30T01:54:07;4.60;99.90
9810;DHT22;4944;52.514;13.192;2024-01-30T01:56:34;4.60;99.90
9810;DHT22;4944;52.514;13.192;2024-01-30T01:59:05;4.60;99.90
9810;DHT22;4944;52.514;13.192;2024-01-30T02:01:33;4.60;99.90
9810;DHT22;4944;52.514;13.192;2024-01-30T02:04:00;4.60;99.90
9810;DHT22;4944;52.514;13.192;2024-01-30T02:06:29;4.60;99.90
9810;DHT22;4944;52.514;13.192;2024-01-30T02:08:55;4.60;99.90
9810;DHT22;4944;52.514;13.192;2024-01-30T02:11:23;4.60;99.90
9810;DHT22;4944;52.514;13.192;2024-01-30T02:13:50;4.60;99.90
9810;DHT22;4944;52.514;13.192;2024-01-30T02:16:17;4.60;99.90
9810;DHT22;4944;52.514;13.192;2024-01-30T02:18:44;4.50;99.90
9810;DHT22;4944;52.514;13.192;2024-01-30T02:21:15;4.40;99.90
9810;DHT22;4944;52.514;13.192;2024-01-30T02:23:43;4.30;99.90
9810;DHT22;4944;52.514;13.192;2024-01-30T02:26:11;4.30;99.90
9810;DHT22;4944;52.514;13.192;2024-01-30T02:28:38;4.20;99.90
9810;DHT22;4944;52.514;13.192;2024-01-30T02:31:05;4.20;99.90
9810;DHT22;4944;52.514;13.192;2024-01-30T02:33:32;4.20;99.90
9810;DHT22;4944;52.514;13.192;2024-01-30T02:35:59;4.30;99.90
9810;DHT22;4944;52.514;13.192;2024-01-30T02:38:27;4.20;99.90
9810;DHT22;4944;52.514;13.192;2024-01-30T02:40:54;4.30;99.90
9810;DHT22;4944;52.514;13.192;2024-01-30T02:43:22;4.30;99.90
9810;DHT22;4944;52.514;13.192;2024-01-30T02:45:49;4.40;99.90
9810;DHT22;4944;52.514;13.192;2024-01-30T02:48:15;4.40;99.90
9810;DHT22;4944;52.514;13.192;2024-01-30T02:50:42;4.30;99.90
9810;DHT22;4944;52.514;13.192;2024-01-30T02:53:09;4.30;99.90
9810;DHT22;4944;52.514;13.192;2024-01-30T02:55:37;4.30;99.90
9810;DHT22;4944;52.514;13.192;2024-01-30T02:58:04;4.30;99.90
9810;DHT22;4944;52.514;13.192;2024-01-30T03:00:32;4.30;99.90
9810;DHT22;4944;52.514;13.192;2024-01-30T03:02:59;4.40;99.90
9810;DHT22;4944;52.514;13.192;2024-01-30T03:05:26;4.40;99.90
9810;DHT22;4944;52.514;13.192;2024-01-30T03:07:52;4.20;99.90
9810;DHT22;4944;52.514;13.192;2024-01-30T03:10:19;4.20;99.90
9810;DHT22;4944;52.514;13.192;2024-01-30T03:12:48;4.10;99.90
9810;DHT22;4944;52.514;13.192;2024-01-30T03:15:15;4.20;99.90
9810;DHT22;4944;52.514;13.192;2024-01-30T03:17:42;4.20;99.90
9810;DHT22;4944;52.514;13.192;2024-01-30T03:20:09;4.20;99.90
9810;DHT22;4944;52.514;13.192;2024-01-30T03:22:38;4.20;99.90
9810;DHT22;4944;52.514;13.192;2024-01-30T03:25:05;4.20;99.90
9810;DHT22;4944;52.514;13.192;2024-01-30T03:27:32;4.30;99.90
9810;DHT22;4944;52.514;13.192;2024-01-30T03:30:00;4.30;99.90
9810;DHT22;4944;52.514;13.192;2024-01-30T03:32:27;4.20;99.90
9810;DHT22;4944;52.514;13.192;2024-01-30T03:34:54;4.30;99.90
9810;DHT22;4944;52.514;13.192;2024-01-30T03:37:21;4.30;99.90
9810;DHT22;4944;52.514;13.192;2024-01-30T03:39:48;4.30;99.90
9810;DHT22;4944;52.514;13.192;2024-01-30T03:42:15;4.30;99.90
9810;DHT22;4944;52.514;13.192;2024-01-30T03:44:42;4.30;99.90
9810;DHT22;4944;52.514;13.192;2024-01-30T03:47:11;4.30;99.90
9810;DHT22;4944;52.514;13.192;2024-01-30T03:49:38;4.30;99.90
9810;DHT22;4944;52.514;13.192;2024-01-30T03:52:05;4.30;99.90
9810;DHT22;4944;52.514;13.192;2024-01-30T03:54:32;4.30;99.90
9810;DHT22;4944;52.514;13.192;2024-01-30T03:56:58;4.30;99.90
9810;DHT22;4944;52.514;13.192;2024-01-30T03:59:29;4.30;99.90
9810;DHT22;4944;52.514;13.192;2024-01-30T04:01:56;4.30;99.90
9810;DHT22;4944;52.514;13.192;2024-01-30T04:04:24;4.30;99.90
9810;DHT22;4944;52.514;13.192;2024-01-30T04:06:51;4.30;99.90
9810;DHT22;4944;52.514;13.192;2024-01-30T04:09:18;4.20;99.90
9810;DHT22;4944;52.514;13.192;2024-01-30T04:11:45;4.30;99.90
9810;DHT22;4944;52.514;13.192;2024-01-30T04:14:12;4.30;99.90
9810;DHT22;4944;52.514;13.192;2024-01-30T04:16:40;4.30;99.90
9810;DHT22;4944;52.514;13.192;2024-01-30T04:19:07;4.30;99.90
9810;DHT22;4944;52.514;13.192;2024-01-30T04:21:36;4.20;99.90
9810;DHT22;4944;52.514;13.192;2024-01-30T04:24:03;4.20;99.90
9810;DHT22;4944;52.514;13.192;2024-01-30T04:26:30;4.20;99.90
9810;DHT22;4944;52.514;13.192;2024-01-30T04:28:57;4.20;99.90
9810;DHT22;4944;52.514;13.192;2024-01-30T04:31:23;4.10;99.90
9810;DHT22;4944;52.514;13.192;2024-01-30T04:33:50;4.20;99.90
9810;DHT22;4944;52.514;13.192;2024-01-30T04:36:17;4.10;99.90
9810;DHT22;4944;52.514;13.192;2024-01-30T04:38:45;4.10;99.90
9810;DHT22;4944;52.514;13.192;2024-01-30T04:41:12;4.10;99.90
9810;DHT22;4944;52.514;13.192;2024-01-30T04:43:39;4.10;99.90
9810;DHT22;4944;52.514;13.192;2024-01-30T04:46:06;4.10;99.90
9810;DHT22;4944;52.514;13.192;2024-01-30T04:48:33;4.10;99.90
9810;DHT22;4944;52.514;13.192;2024-01-30T04:51:00;3.90;99.90
9810;DHT22;4944;52.514;13.192;2024-01-30T04:53:29;3.80;99.90
9810;DHT22;4944;52.514;13.192;2024-01-30T04:55:58;3.90;99.90
9810;DHT22;4944;52.514;13.192;2024-01-30T04:58:24;3.90;99.90
9810;DHT22;4944;52.514;13.192;2024-01-30T05:00:51;3.90;99.90
9810;DHT22;4944;52.514;13.192;2024-01-30T05:03:19;3.90;99.90
9810;DHT22;4944;52.514;13.192;2024-01-30T05:05:48;3.90;99.90
9810;DHT22;4944;52.514;13.192;2024-01-30T05:08:15;3.90;99.90
9810;DHT22;4944;52.514;13.192;2024-01-30T05:10:42;3.90;99.90
9810;DHT22;4944;52.514;13.192;2024-01-30T05:13:10;3.90;99.90
9810;DHT22;4944;52.514;13.192;2024-01-30T05:15:39;3.90;99.90
9810;DHT22;4944;52.514;13.192;2024-01-30T05:18:06;4.00;99.90
9810;DHT22;4944;52.514;13.192;2024-01-30T05:20:33;3.90;99.90
9810;DHT22;4944;52.514;13.192;2024-01-30T05:23:00;3.90;99.90
9810;DHT22;4944;52.514;13.192;2024-01-30T05:25:27;3.90;99.90
9810;DHT22;4944;52.514;13.192;2024-01-30T05:27:54;3.90;99.90
9810;DHT22;4944;52.514;13.192;2024-01-30T05:30:22;3.90;99.90
9810;DHT22;4944;52.514;13.192;2024-01-30T05:32:49;3.90;99.90
9810;DHT22;4944;52.514;13.192;2024-01-30T05:35:16;3.90;99.90
9810;DHT22;4944;52.514;13.192;2024-01-30T05:37:43;3.90;99.90
9810;DHT22;4944;52.514;13.192;2024-01-30T05:40:11;3.90;99.90
9810;DHT22;4944;52.514;13.192;2024-01-30T05:42:38;3.90;99.90
9810;DHT22;4944;52.514;13.192;2024-01-30T05:45:05;3.90;99.90
9810;DHT22;4944;52.514;13.192;2024-01-30T05:47:34;3.90;99.90
9810;DHT22;4944;52.514;13.192;2024-01-30T05:50:01;3.90;99.90
9810;DHT22;4944;52.514;13.192;2024-01-30T05:52:28;3.90;99.90
9810;DHT22;4944;52.514;13.192;2024-01-30T05:54:55;3.90;99.90
9810;DHT22;4944;52.514;13.192;2024-01-30T05:57:22;3.90;99.90
9810;DHT22;4944;52.514;13.192;2024-01-30T05:59:49;3.90;99.90
9810;DHT22;4944;52.514;13.192;2024-01-30T06:02:17;3.90;99.90
9810;DHT22;4944;52.514;13.192;2024-01-30T06:04:45;3.90;99.90
9810;DHT22;4944;52.514;13.192;2024-01-30T06:07:12;3.90;99.90
9810;DHT22;4944;52.514;13.192;2024-01-30T06:09:39;3.90;99.90
9810;DHT22;4944;52.514;13.192;2024-01-30T06:12:06;3.90;99.90
9810;DHT22;4944;52.514;13.192;2024-01-30T06:14:33;3.90;99.90
9810;DHT22;4944;52.514;13.192;2024-01-30T06:17:00;3.90;99.90
9810;DHT22;4944;52.514;13.192;2024-01-30T06:19:27;3.90;99.90
9810;DHT22;4944;52.514;13.192;2024-01-30T06:21:57;3.90;99.90
9810;DHT22;4944;52.514;13.192;2024-01-30T06:24:24;3.90;99.90
9810;DHT22;4944;52.514;13.192;2024-01-30T06:26:51;3.90;99.90
9810;DHT22;4944;52.514;13.192;2024-01-30T06:29:17;3.90;99.90
9810;DHT22;4944;52.514;13.192;2024-01-30T06:31:44;3.90;99.90
9810;DHT22;4944;52.514;13.192;2024-01-30T06:34:11;3.90;99.90
9810;DHT22;4944;52.514;13.192;2024-01-30T06:36:38;3.90;99.90
9810;DHT22;4944;52.514;13.192;2024-01-30T06:39:06;3.90;99.90
9810;DHT22;4944;52.514;13.192;2024-01-30T06:41:34;3.90;99.90
9810;DHT22;4944;52.514;13.192;2024-01-30T06:44:02;3.90;99.90
9810;DHT22;4944;52.514;13.192;2024-01-30T06:46:30;3.90;99.90
9810;DHT22;4944;52.514;13.192;2024-01-30T06:48:58;3.90;99.90
9810;DHT22;4944;52.514;13.192;2024-01-30T06:51:25;3.90;99.90
9810;DHT22;4944;52.514;13.192;2024-01-30T06:53:51;3.90;99.90
9810;DHT22;4944;52.514;13.192;2024-01-30T06:56:20;3.90;99.90
9810;DHT22;4944;52.514;13.192;2024-01-30T06:58:47;4.00;99.90
9810;DHT22;4944;52.514;13.192;2024-01-30T07:01:14;4.00;99.90
9810;DHT22;4944;52.514;13.192;2024-01-30T07:03:41;4.00;99.90
9810;DHT22;4944;52.514;13.192;2024-01-30T07:06:09;4.00;99.90
9810;DHT22;4944;52.514;13.192;2024-01-30T07:08:36;4.00;99.90
9810;DHT22;4944;52.514;13.192;2024-01-30T07:11:04;4.00;99.90
9810;DHT22;4944;52.514;13.192;2024-01-30T07:13:34;4.00;99.90
9810;DHT22;4944;52.514;13.192;2024-01-30T07:16:01;4.00;99.90
9810;DHT22;4944;52.514;13.192;2024-01-30T07:18:27;4.00;99.90
9810;DHT22;4944;52.514;13.192;2024-01-30T07:20:54;4.00;99.90
9810;DHT22;4944;52.514;13.192;2024-01-30T07:23:21;4.00;99.90
9810;DHT22;4944;52.514;13.192;2024-01-30T07:25:48;4.00;99.90
9810;DHT22;4944;52.514;13.192;2024-01-30T07:28:15;4.00;99.90
9810;DHT22;4944;52.514;13.192;2024-01-30T07:30:44;4.00;99.90
9810;DHT22;4944;52.514;13.192;2024-01-30T07:33:11;4.00;99.90
9810;DHT22;4944;52.514;13.192;2024-01-30T07:35:38;4.00;99.90
9810;DHT22;4944;52.514;13.192;2024-01-30T07:38:05;4.10;99.90
9810;DHT22;4944;52.514;13.192;2024-01-30T07:40:32;4.00;99.90
9810;DHT22;4944;52.514;13.192;2024-01-30T07:42:59;4.10;99.90
9810;DHT22;4944;52.514;13.192;2024-01-30T07:45:26;4.10;99.90
9810;DHT22;4944;52.514;13.192;2024-01-30T07:47:59;4.00;99.90
9810;DHT22;4944;52.514;13.192;2024-01-30T07:50:26;4.10;99.90
9810;DHT22;4944;52.514;13.192;2024-01-30T07:52:53;4.10;99.90
9810;DHT22;4944;52.514;13.192;2024-01-30T07:55:21;4.10;99.90
9810;DHT22;4944;52.514;13.192;2024-01-30T07:57:51;4.10;99.90
9810;DHT22;4944;52.514;13.192;2024-01-30T08:00:18;4.10;99.90
9810;DHT22;4944;52.514;13.192;2024-01-30T08:02:45;4.10;99.90
9810;DHT22;4944;52.514;13.192;2024-01-30T08:05:14;4.10;99.90
9810;DHT22;4944;52.514;13.192;2024-01-30T08:07:41;4.00;99.90
9810;DHT22;4944;52.514;13.192;2024-01-30T08:10:08;4.00;99.90
9810;DHT22;4944;52.514;13.192;2024-01-30T08:12:35;4.00;99.90
9810;DHT22;4944;52.514;13.192;2024-01-30T08:15:03;4.00;99.90
9810;DHT22;4944;52.514;13.192;2024-01-30T08:17:29;4.00;99.90
9810;DHT22;4944;52.514;13.192;2024-01-30T08:19:56;4.10;99.90
9810;DHT22;4944;52.514;13.192;2024-01-30T08:22:25;4.10;99.90
9810;DHT22;4944;52.514;13.192;2024-01-30T08:24:52;4.20;99.90
9810;DHT22;4944;52.514;13.192;2024-01-30T08:27:19;4.20;99.90
9810;DHT22;4944;52.514;13.192;2024-01-30T08:29:46;4.30;99.90
9810;DHT22;4944;52.514;13.192;2024-01-30T08:32:13;4.40;99.90
9810;DHT22;4944;52.514;13.192;2024-01-30T08:34:40;4.30;99.90
9810;DHT22;4944;52.514;13.192;2024-01-30T08:37:07;4.40;99.90
9810;DHT22;4944;52.514;13.192;2024-01-30T08:39:35;4.50;99.90
9810;DHT22;4944;52.514;13.192;2024-01-30T08:42:02;4.50;99.90
9810;DHT22;4944;52.514;13.192;2024-01-30T08:44:29;4.50;99.90
9810;DHT22;4944;52.514;13.192;2024-01-30T08:46:56;4.60;99.90
9810;DHT22;4944;52.514;13.192;2024-01-30T08:49:22;4.70;99.90
9810;DHT22;4944;52.514;13.192;2024-01-30T08:51:49;4.70;99.90
9810;DHT22;4944;52.514;13.192;2024-01-30T08:54:16;4.60;99.90
9810;DHT22;4944;52.514;13.192;2024-01-30T08:56:45;4.70;99.90
9810;DHT22;4944;52.514;13.192;2024-01-30T08:59:12;4.70;99.90
9810;DHT22;4944;52.514;13.192;2024-01-30T09:01:39;4.70;99.90
9810;DHT22;4944;52.514;13.192;2024-01-30T09:04:06;4.80;99.90
9810;DHT22;4944;52.514;13.192;2024-01-30T09:06:32;4.80;99.90
9810;DHT22;4944;52.514;13.192;2024-01-30T09:08:59;4.90;99.90
9810;DHT22;4944;52.514;13.192;2024-01-30T09:11:26;4.90;99.90
9810;DHT22;4944;52.514;13.192;2024-01-30T09:13:55;5.00;99.90
9810;DHT22;4944;52.514;13.192;2024-01-30T09:16:21;4.90;99.90
9810;DHT22;4944;52.514;13.192;2024-01-30T09:18:48;5.00;99.90
9810;DHT22;4944;52.514;13.192;2024-01-30T09:21:15;5.00;99.90
9810;DHT22;4944;52.514;13.192;2024-01-30T09:23:42;5.00;99.90
9810;DHT22;4944;52.514;13.192;2024-01-30T09:26:09;5.10;99.90
9810;DHT22;4944;52.514;13.192;2024-01-30T09:28:38;5.10;99.90
9810;DHT22;4944;52.514;13.192;2024-01-30T09:31:09;5.20;99.90
9810;DHT22;4944;52.514;13.192;2024-01-30T09:33:36;5.20;99.90
9810;DHT22;4944;52.514;13.192;2024-01-30T09:36:04;5.20;99.90
9810;DHT22;4944;52.514;13.192;2024-01-30T09:38:31;5.30;99.90
9810;DHT22;4944;52.514;13.192;2024-01-30T09:41:03;5.40;99.90
9810;DHT22;4944;52.514;13.192;2024-01-30T09:43:33;5.40;99.90
9810;DHT22;4944;52.514;13.192;2024-01-30T09:46:02;5.50;99.90
9810;DHT22;4944;52.514;13.192;2024-01-30T09:48:32;5.50;99.90
9810;DHT22;4944;52.514;13.192;2024-01-30T09:50:59;5.60;99.90
9810;DHT22;4944;52.514;13.192;2024-01-30T09:53:26;5.60;99.90
9810;DHT22;4944;52.514;13.192;2024-01-30T09:55:56;5.60;99.90
9810;DHT22;4944;52.514;13.192;2024-01-30T09:58:23;5.60;99.90
9810;DHT22;4944;52.514;13.192;2024-01-30T10:00:51;5.70;99.90
9810;DHT22;4944;52.514;13.192;2024-01-30T10:03:19;5.70;99.90
9810;DHT22;4944;52.514;13.192;2024-01-30T10:05:51;5.70;99.90
9810;DHT22;4944;52.514;13.192;2024-01-30T10:08:18;5.70;99.90
9810;DHT22;4944;52.514;13.192;2024-01-30T10:10:46;5.70;99.90
9810;DHT22;4944;52.514;13.192;2024-01-30T10:13:13;5.70;99.90
9810;DHT22;4944;52.514;13.192;2024-01-30T10:15:40;5.70;99.90
9810;DHT22;4944;52.514;13.192;2024-01-30T10:18:08;5.70;99.90
9810;DHT22;4944;52.514;13.192;2024-01-30T10:20:35;5.80;99.90
9810;DHT22;4944;52.514;13.192;2024-01-30T10:23:04;5.80;99.90
9810;DHT22;4944;52.514;13.192;2024-01-30T10:25:31;5.80;99.90
9810;DHT22;4944;52.514;13.192;2024-01-30T10:27:59;5.90;99.90
9810;DHT22;4944;52.514;13.192;2024-01-30T10:30:27;5.90;99.90
9810;DHT22;4944;52.514;13.192;2024-01-30T10:32:54;6.00;99.90
9810;DHT22;4944;52.514;13.192;2024-01-30T10:35:21;6.00;99.90
9810;DHT22;4944;52.514;13.192;2024-01-30T10:37:48;6.10;99.90
9810;DHT22;4944;52.514;13.192;2024-01-30T10:40:16;6.20;99.90
9810;DHT22;4944;52.514;13.192;2024-01-30T10:42:44;6.30;99.90
9810;DHT22;4944;52.514;13.192;2024-01-30T10:45:13;6.40;99.90
9810;DHT22;4944;52.514;13.192;2024-01-30T10:47:44;6.50;99.90
9810;DHT22;4944;52.514;13.192;2024-01-30T10:50:14;6.50;99.90
9810;DHT22;4944;52.514;13.192;2024-01-30T10:52:42;6.60;99.90
9810;DHT22;4944;52.514;13.192;2024-01-30T10:55:10;6.70;99.90
9810;DHT22;4944;52.514;13.192;2024-01-30T10:57:38;6.90;99.90
9810;DHT22;4944;52.514;13.192;2024-01-30T11:00:07;6.90;99.90
9810;DHT22;4944;52.514;13.192;2024-01-30T11:02:37;7.10;99.90
9810;DHT22;4944;52.514;13.192;2024-01-30T11:05:05;7.10;99.90
9810;DHT22;4944;52.514;13.192;2024-01-30T11:07:34;7.10;99.90
9810;DHT22;4944;52.514;13.192;2024-01-30T11:10:02;7.10;99.90
9810;DHT22;4944;52.514;13.192;2024-01-30T11:12:31;7.20;99.90
9810;DHT22;4944;52.514;13.192;2024-01-30T11:15:05;7.20;99.90
9810;DHT22;4944;52.514;13.192;2024-01-30T11:17:47;7.20;99.90
9810;DHT22;4944;52.514;13.192;2024-01-30T11:20:19;7.20;99.90
9810;DHT22;4944;52.514;13.192;2024-01-30T11:22:47;7.10;99.90
9810;DHT22;4944;52.514;13.192;2024-01-30T11:25:14;7.10;99.90
9810;DHT22;4944;52.514;13.192;2024-01-30T11:27:42;7.00;99.90
9810;DHT22;4944;52.514;13.192;2024-01-30T11:30:20;7.10;99.90
9810;DHT22;4944;52.514;13.192;2024-01-30T11:32:58;7.00;99.90
9810;DHT22;4944;52.514;13.192;2024-01-30T11:35:25;7.10;99.90
9810;DHT22;4944;52.514;13.192;2024-01-30T11:37:52;7.10;99.90
9810;DHT22;4944;52.514;13.192;2024-01-30T11:40:21;7.10;99.90
9810;DHT22;4944;52.514;13.192;2024-01-30T11:42:49;7.10;99.90
9810;DHT22;4944;52.514;13.192;2024-01-30T11:45:17;7.00;99.90
9810;DHT22;4944;52.514;13.192;2024-01-30T11:47:44;7.00;99.90
9810;DHT22;4944;52.514;13.192;2024-01-30T11:50:11;7.00;99.90
9810;DHT22;4944;52.514;13.192;2024-01-30T11:52:38;7.00;99.90
9810;DHT22;4944;52.514;13.192;2024-01-30T11:55:06;7.10;99.90
9810;DHT22;4944;52.514;13.192;2024-01-30T11:57:33;7.10;99.90
9810;DHT22;4944;52.514;13.192;2024-01-30T12:00:00;7.10;99.90
9810;DHT22;4944;52.514;13.192;2024-01-30T12:02:29;7.10;99.90
9810;DHT22;4944;52.514;13.192;2024-01-30T12:04:55;7.20;99.90
9810;DHT22;4944;52.514;13.192;2024-01-30T12:07:22;7.20;99.90
9810;DHT22;4944;52.514;13.192;2024-01-30T12:09:53;7.20;99.90
9810;DHT22;4944;52.514;13.192;2024-01-30T12:12:22;7.20;99.90
9810;DHT22;4944;52.514;13.192;2024-01-30T12:14:49;7.30;99.90
9810;DHT22;4944;52.514;13.192;2024-01-30T12:17:23;7.30;99.90
9810;DHT22;4944;52.514;13.192;2024-01-30T12:20:02;7.30;99.90
9810;DHT22;4944;52.514;13.192;2024-01-30T12:22:30;7.30;99.90
9810;DHT22;4944;52.514;13.192;2024-01-30T12:24:57;7.40;99.90
9810;DHT22;4944;52.514;13.192;2024-01-30T12:27:24;7.40;99.90
9810;DHT22;4944;52.514;13.192;2024-01-30T12:29:56;7.50;99.90
9810;DHT22;4944;52.514;13.192;2024-01-30T12:32:23;7.50;99.90
9810;DHT22;4944;52.514;13.192;2024-01-30T12:34:54;7.50;99.90
9810;DHT22;4944;52.514;13.192;2024-01-30T12:37:21;7.50;99.90
9810;DHT22;4944;52.514;13.192;2024-01-30T12:39:51;7.50;99.90
9810;DHT22;4944;52.514;13.192;2024-01-30T12:42:19;7.60;99.90
9810;DHT22;4944;52.514;13.192;2024-01-30T12:44:48;7.60;99.90
9810;DHT22;4944;52.514;13.192;2024-01-30T12:47:15;7.70;99.90
9810;DHT22;4944;52.514;13.192;2024-01-30T12:49:42;7.90;99.90
9810;DHT22;4944;52.514;13.192;2024-01-30T12:52:11;7.90;99.90
9810;DHT22;4944;52.514;13.192;2024-01-30T12:54:38;8.00;99.90
9810;DHT22;4944;52.514;13.192;2024-01-30T12:57:05;7.90;99.90
9810;DHT22;4944;52.514;13.192;2024-01-30T12:59:32;8.00;99.90
9810;DHT22;4944;52.514;13.192;2024-01-30T13:02:01;7.90;99.90
9810;DHT22;4944;52.514;13.192;2024-01-30T13:04:29;7.90;99.90
9810;DHT22;4944;52.514;13.192;2024-01-30T13:06:56;7.90;99.90
9810;DHT22;4944;52.514;13.192;2024-01-30T13:09:25;7.80;99.90
9810;DHT22;4944;52.514;13.192;2024-01-30T13:11:52;7.80;99.90
9810;DHT22;4944;52.514;13.192;2024-01-30T13:14:19;7.70;99.90
9810;DHT22;4944;52.514;13.192;2024-01-30T13:16:46;7.70;99.90
9810;DHT22;4944;52.514;13.192;2024-01-30T13:19:13;7.60;99.90
9810;DHT22;4944;52.514;13.192;2024-01-30T13:21:40;7.60;99.90
9810;DHT22;4944;52.514;13.192;2024-01-30T13:24:07;7.60;99.90
9810;DHT22;4944;52.514;13.192;2024-01-30T13:26:35;7.60;99.90
9810;DHT22;4944;52.514;13.192;2024-01-30T13:29:02;7.70;99.90
9810;DHT22;4944;52.514;13.192;2024-01-30T13:31:30;7.70;99.90
9810;DHT22;4944;52.514;13.192;2024-01-30T13:33:57;7.70;99.90
9810;DHT22;4944;52.514;13.192;2024-01-30T13:36:24;7.70;99.90
9810;DHT22;4944;52.514;13.192;2024-01-30T13:38:51;7.70;99.90
9810;DHT22;4944;52.514;13.192;2024-01-30T13:41:18;7.80;99.90
9810;DHT22;4944;52.514;13.192;2024-01-30T13:43:47;7.80;99.90
9810;DHT22;4944;52.514;13.192;2024-01-30T13:46:14;7.80;99.90
9810;DHT22;4944;52.514;13.192;2024-01-30T13:48:41;7.80;99.90
9810;DHT22;4944;52.514;13.192;2024-01-30T13:51:08;7.80;99.90
9810;DHT22;4944;52.514;13.192;2024-01-30T13:53:36;7.80;99.90
9810;DHT22;4944;52.514;13.192;2024-01-30T13:56:03;7.80;99.90
9810;DHT22;4944;52.514;13.192;2024-01-30T13:58:31;7.80;99.90
9810;DHT22;4944;52.514;13.192;2024-01-30T14:01:01;7.70;99.90
9810;DHT22;4944;52.514;13.192;2024-01-30T14:03:28;7.70;99.90
9810;DHT22;4944;52.514;13.192;2024-01-30T14:05:55;7.70;99.90
9810;DHT22;4944;52.514;13.192;2024-01-30T14:08:22;7.60;99.90
9810;DHT22;4944;52.514;13.192;2024-01-30T14:10:52;7.60;99.90
9810;DHT22;4944;52.514;13.192;2024-01-30T14:13:19;7.60;99.90
9810;DHT22;4944;52.514;13.192;2024-01-30T14:15:46;7.70;99.90
9810;DHT22;4944;52.514;13.192;2024-01-30T14:18:14;7.60;99.90
9810;DHT22;4944;52.514;13.192;2024-01-30T14:20:41;7.60;99.90
9810;DHT22;4944;52.514;13.192;2024-01-30T14:23:08;7.60;99.90
9810;DHT22;4944;52.514;13.192;2024-01-30T14:25:35;7.60;99.90
9810;DHT22;4944;52.514;13.192;2024-01-30T14:28:02;7.60;99.90
9810;DHT22;4944;52.514;13.192;2024-01-30T14:30:29;7.60;99.90
9810;DHT22;4944;52.514;13.192;2024-01-30T14:32:56;7.60;99.90
9810;DHT22;4944;52.514;13.192;2024-01-30T14:35:24;7.60;99.90
9810;DHT22;4944;52.514;13.192;2024-01-30T14:37:51;7.60;99.90
9810;DHT22;4944;52.514;13.192;2024-01-30T14:40:19;7.60;99.90
9810;DHT22;4944;52.514;13.192;2024-01-30T14:42:46;7.60;99.90
9810;DHT22;4944;52.514;13.192;2024-01-30T14:45:13;7.50;99.90
9810;DHT22;4944;52.514;13.192;2024-01-30T14:47:40;7.50;99.90
9810;DHT22;4944;52.514;13.192;2024-01-30T14:50:07;7.50;99.90
9810;DHT22;4944;52.514;13.192;2024-01-30T14:52:36;7.50;99.90
9810;DHT22;4944;52.514;13.192;2024-01-30T14:55:05;7.50;99.90
9810;DHT22;4944;52.514;13.192;2024-01-30T14:57:32;7.40;99.90
9810;DHT22;4944;52.514;13.192;2024-01-30T15:00:00;7.40;99.90
9810;DHT22;4944;52.514;13.192;2024-01-30T15:02:28;7.40;99.90
9810;DHT22;4944;52.514;13.192;2024-01-30T15:04:55;7.40;99.90
9810;DHT22;4944;52.514;13.192;2024-01-30T15:07:22;7.40;99.90
9810;DHT22;4944;52.514;13.192;2024-01-30T15:09:50;7.40;99.90
9810;DHT22;4944;52.514;13.192;2024-01-30T15:12:17;7.40;99.90
9810;DHT22;4944;52.514;13.192;2024-01-30T15:14:44;7.30;99.90
9810;DHT22;4944;52.514;13.192;2024-01-30T15:17:16;7.30;99.90
9810;DHT22;4944;52.514;13.192;2024-01-30T15:19:43;7.30;99.90
9810;DHT22;4944;52.514;13.192;2024-01-30T15:22:10;7.30;99.90
9810;DHT22;4944;52.514;13.192;2024-01-30T15:24:37;7.20;99.90
9810;DHT22;4944;52.514;13.192;2024-01-30T15:27:05;7.20;99.90
9810;DHT22;4944;52.514;13.192;2024-01-30T15:29:32;7.20;99.90
9810;DHT22;4944;52.514;13.192;2024-01-30T15:31:59;7.20;99.90
9810;DHT22;4944;52.514;13.192;2024-01-30T15:34:26;7.20;99.90
9810;DHT22;4944;52.514;13.192;2024-01-30T15:36:53;7.20;99.90
9810;DHT22;4944;52.514;13.192;2024-01-30T15:39:20;7.20;99.90
9810;DHT22;4944;52.514;13.192;2024-01-30T15:41:47;7.20;99.90
9810;DHT22;4944;52.514;13.192;2024-01-30T15:44:15;7.10;99.90
9810;DHT22;4944;52.514;13.192;2024-01-30T15:46:42;7.10;99.90
9810;DHT22;4944;52.514;13.192;2024-01-30T15:49:09;7.10;99.90
9810;DHT22;4944;52.514;13.192;2024-01-30T15:51:36;7.10;99.90
9810;DHT22;4944;52.514;13.192;2024-01-30T15:54:03;7.10;99.90
9810;DHT22;4944;52.514;13.192;2024-01-30T15:56:29;7.10;99.90
9810;DHT22;4944;52.514;13.192;2024-01-30T15:58:56;7.10;99.90
9810;DHT22;4944;52.514;13.192;2024-01-30T16:01:25;7.00;99.90
9810;DHT22;4944;52.514;13.192;2024-01-30T16:03:52;7.00;99.90